createdAt,value
2022-08-01T00:00:26.817Z,17.30
2022-08-01T00:05:29.340Z,17.10
2022-08-01T00:10:31.916Z,16.70
2022-08-01T00:15:34.914Z,16.70
2022-08-01T00:20:37.426Z,16.70
2022-08-01T00:25:39.913Z,16.80
2022-08-01T00:30:42.543Z,16.80
2022-08-01T00:35:45.216Z,16.60
2022-08-01T00:40:47.739Z,16.50
2022-08-01T00:45:50.449Z,16.50
2022-08-01T00:50:52.973Z,16.50
2022-08-01T00:55:55.687Z,16.60
2022-08-01T01:00:58.695Z,16.30
2022-08-01T01:06:34.825Z,16.30
2022-08-01T01:12:04.657Z,16.10
2022-08-01T01:17:10.054Z,16.20
2022-08-01T01:22:32.914Z,16.30
2022-08-01T01:27:46.488Z,16.20
2022-08-01T01:32:51.205Z,16.40
2022-08-01T01:38:01.316Z,16.40
2022-08-01T01:43:04.102Z,16.30
2022-08-01T01:48:08.781Z,16.30
2022-08-01T01:53:15.233Z,16.20
2022-08-01T01:58:20.764Z,16.30
2022-08-01T02:03:25.040Z,16.40
2022-08-01T02:08:30.637Z,16.40
2022-08-01T02:13:38.532Z,16.30
2022-08-01T02:18:42.117Z,16.40
2022-08-01T02:23:45.424Z,16.40
2022-08-01T02:29:09.780Z,16.50
2022-08-01T02:34:17.396Z,16.60
2022-08-01T02:39:22.734Z,16.70
2022-08-01T02:44:29.757Z,16.80
2022-08-01T02:49:35.224Z,16.80
2022-08-01T02:54:39.598Z,16.90
2022-08-01T02:59:43.928Z,17.10
2022-08-01T03:04:52.694Z,17.10
2022-08-01T03:09:59.370Z,17.30
2022-08-01T03:15:04.821Z,17.30
2022-08-01T03:20:09.840Z,17.20
2022-08-01T03:25:16.326Z,17.30
2022-08-01T03:30:18.942Z,17.50
2022-08-01T03:35:24.542Z,17.70
2022-08-01T03:40:38.159Z,17.60
2022-08-01T03:45:44.439Z,17.70
2022-08-01T03:50:52.574Z,17.80
2022-08-01T03:55:57.036Z,17.90
2022-08-01T04:00:59.888Z,17.90
2022-08-01T04:06:06.143Z,18.00
2022-08-01T04:11:10.213Z,17.90
2022-08-01T04:16:12.833Z,17.90
2022-08-01T04:21:17.736Z,18.00
2022-08-01T04:26:22.438Z,18.00
2022-08-01T04:31:27.161Z,18.10
2022-08-01T04:36:33.863Z,18.30
2022-08-01T04:41:37.611Z,18.30
2022-08-01T04:46:41.022Z,18.40
2022-08-01T04:51:58.669Z,18.50
2022-08-01T04:57:02.111Z,18.60
2022-08-01T05:02:04.881Z,18.70
2022-08-01T05:07:09.021Z,18.80
2022-08-01T05:12:12.066Z,18.80
2022-08-01T05:17:14.634Z,18.80
2022-08-01T05:22:18.375Z,18.70
2022-08-01T05:27:20.931Z,18.70
2022-08-01T05:32:24.229Z,18.60
2022-08-01T05:37:26.845Z,18.70
2022-08-01T05:42:29.407Z,18.80
2022-08-01T05:47:31.924Z,18.80
2022-08-01T05:52:34.527Z,19.00
2022-08-01T05:57:37.101Z,19.00
2022-08-01T06:02:45.846Z,18.80
2022-08-01T06:07:48.739Z,18.80
2022-08-01T06:12:51.284Z,18.80
2022-08-01T06:17:53.829Z,18.70
2022-08-01T06:22:56.381Z,18.80
2022-08-01T06:27:58.956Z,19.10
2022-08-01T06:33:01.622Z,19.10
2022-08-01T06:38:04.596Z,19.30
2022-08-01T06:43:07.571Z,19.30
2022-08-01T06:48:10.167Z,19.50
2022-08-01T06:53:12.787Z,19.80
2022-08-01T06:58:15.291Z,19.80
2022-08-01T07:03:17.805Z,19.80
2022-08-01T07:08:20.492Z,19.90
2022-08-01T07:13:26.028Z,19.90
2022-08-01T07:18:46.773Z,20.00
2022-08-01T07:23:49.333Z,19.90
2022-08-01T07:28:52.153Z,20.00
2022-08-01T07:33:54.818Z,20.00
2022-08-01T07:38:58.020Z,20.00
2022-08-01T07:44:04.640Z,20.10
2022-08-01T07:49:07.531Z,20.40
2022-08-01T07:54:10.157Z,20.40
2022-08-01T07:59:12.739Z,20.50
2022-08-01T08:04:26.439Z,20.40
2022-08-01T08:09:29.407Z,20.40
2022-08-01T08:14:32.629Z,20.50
2022-08-01T08:19:39.000Z,20.50
2022-08-01T08:24:45.604Z,20.60
2022-08-01T08:29:49.549Z,20.80
2022-08-01T08:34:52.066Z,20.80
2022-08-01T08:39:55.546Z,20.80
2022-08-01T08:44:58.367Z,21.10
2022-08-01T08:50:02.248Z,21.60
2022-08-01T08:55:05.513Z,21.90
2022-08-01T09:00:10.491Z,22.40
2022-08-01T09:05:17.561Z,22.70
2022-08-01T09:10:22.246Z,23.00
2022-08-01T09:15:43.785Z,23.00
2022-08-01T09:20:46.852Z,23.20
2022-08-01T09:25:59.338Z,23.40
2022-08-01T09:31:13.575Z,23.30
2022-08-01T09:36:16.659Z,23.20
2022-08-01T09:41:37.922Z,23.70
2022-08-01T09:46:50.397Z,24.10
2022-08-01T09:51:59.145Z,24.10
2022-08-01T09:57:13.528Z,24.30
2022-08-01T10:02:28.255Z,24.80
2022-08-01T10:07:42.999Z,24.50
2022-08-01T10:12:49.197Z,24.50
2022-08-01T10:17:59.758Z,24.90
2022-08-01T10:23:06.226Z,25.70
2022-08-01T10:28:17.848Z,27.00
2022-08-01T10:33:51.092Z,27.20
2022-08-01T10:38:47.059Z,27.30
2022-08-01T10:43:52.808Z,26.90
2022-08-01T10:49:27.912Z,27.00
2022-08-01T10:54:39.061Z,28.00
2022-08-01T11:00:00.929Z,28.30
2022-08-01T11:05:21.598Z,27.70
2022-08-01T11:10:41.638Z,26.90
2022-08-01T11:15:49.983Z,26.40
2022-08-01T11:21:57.359Z,26.00
2022-08-01T11:26:29.561Z,26.10
2022-08-01T11:31:37.203Z,26.40
2022-08-01T11:36:58.858Z,26.60
2022-08-01T11:42:20.644Z,26.20
2022-08-01T11:47:46.620Z,26.20
2022-08-01T11:53:02.454Z,26.50
2022-08-01T11:58:06.440Z,27.50
2022-08-01T12:03:20.652Z,28.40
2022-08-01T12:08:37.451Z,28.30
2022-08-01T12:13:44.639Z,27.90
2022-08-01T12:18:47.806Z,28.10
2022-08-01T12:24:03.310Z,29.50
2022-08-01T12:29:05.887Z,29.60
2022-08-01T12:34:31.311Z,29.20
2022-08-01T12:39:34.884Z,28.90
2022-08-01T12:44:38.389Z,28.10
2022-08-01T12:49:44.133Z,27.60
2022-08-01T12:55:03.915Z,27.80
2022-08-01T13:00:24.023Z,27.90
2022-08-01T13:05:26.643Z,27.90
2022-08-01T13:10:31.114Z,27.90
2022-08-01T13:15:36.422Z,25.60
2022-08-01T13:20:44.774Z,25.40
2022-08-01T13:25:56.781Z,25.10
2022-08-01T13:31:08.342Z,25.10
2022-08-01T13:36:11.558Z,25.40
2022-08-01T13:41:14.155Z,26.10
2022-08-01T13:46:17.900Z,27.80
2022-08-01T13:51:22.487Z,28.40
2022-08-01T13:56:28.774Z,26.70
2022-08-01T14:01:34.439Z,25.40
2022-08-01T14:06:37.586Z,27.10
2022-08-01T14:11:41.334Z,31.90
2022-08-01T14:16:48.936Z,33.50
2022-08-01T14:21:53.560Z,35.40
2022-08-01T14:26:56.157Z,33.90
2022-08-01T14:31:58.701Z,30.90
2022-08-01T14:37:01.254Z,29.20
2022-08-01T14:42:06.464Z,28.00
2022-08-01T14:47:16.111Z,27.10
2022-08-01T14:52:24.751Z,26.70
2022-08-01T14:57:27.591Z,26.30
2022-08-01T15:02:30.175Z,26.80
2022-08-01T15:07:33.521Z,28.50
2022-08-01T15:12:49.833Z,28.00
2022-08-01T15:17:53.980Z,27.90
2022-08-01T15:22:56.522Z,27.90
2022-08-01T15:27:59.179Z,28.20
2022-08-01T15:33:01.692Z,28.70
2022-08-01T15:38:04.405Z,29.90
2022-08-01T15:43:07.027Z,30.20
2022-08-01T15:48:09.682Z,29.40
2022-08-01T15:53:12.395Z,29.50
2022-08-01T15:58:16.447Z,29.30
2022-08-01T16:03:19.005Z,30.50
2022-08-01T16:08:21.663Z,31.90
2022-08-01T16:13:24.201Z,30.50
2022-08-01T16:18:27.215Z,28.70
2022-08-01T16:23:29.789Z,28.10
2022-08-01T16:28:32.409Z,28.90
2022-08-01T16:33:45.582Z,30.60
2022-08-01T16:38:57.780Z,29.40
2022-08-01T16:44:00.365Z,27.90
2022-08-01T16:49:03.013Z,27.30
2022-08-01T16:54:06.241Z,26.80
2022-08-01T16:59:28.522Z,26.30
2022-08-01T17:04:31.696Z,26.20
2022-08-01T17:09:34.227Z,26.30
2022-08-01T17:14:39.993Z,26.20
2022-08-01T17:19:42.854Z,26.10
2022-08-01T17:24:45.855Z,26.00
2022-08-01T17:29:48.395Z,25.80
2022-08-01T17:34:50.962Z,25.60
2022-08-01T17:39:53.555Z,25.40
2022-08-01T17:44:57.738Z,25.30
2022-08-01T17:50:04.079Z,25.20
2022-08-01T17:55:55.735Z,25.10
2022-08-01T18:00:30.172Z,24.90
2022-08-01T18:05:36.820Z,24.80
2022-08-01T18:10:40.143Z,24.70
2022-08-01T18:15:42.790Z,24.60
2022-08-01T18:20:45.873Z,24.50
2022-08-01T18:25:48.388Z,24.40
2022-08-01T18:30:50.883Z,24.20
2022-08-01T18:35:53.976Z,24.10
2022-08-01T18:40:57.013Z,24.10
2022-08-01T18:46:01.337Z,24.00
2022-08-01T18:51:03.993Z,23.90
2022-08-01T18:56:12.099Z,23.90
2022-08-01T19:01:15.107Z,23.80
2022-08-01T19:06:17.677Z,23.60
2022-08-01T19:11:20.284Z,23.50
2022-08-01T19:16:23.234Z,23.40
2022-08-01T19:21:26.548Z,23.40
2022-08-01T19:26:30.249Z,23.30
2022-08-01T19:31:33.542Z,23.20
2022-08-01T19:36:38.095Z,23.00
2022-08-01T19:41:40.909Z,22.90
2022-08-01T19:46:44.596Z,22.70
2022-08-01T19:51:52.619Z,22.50
2022-08-01T19:56:57.701Z,22.40
2022-08-01T20:02:00.878Z,22.30
2022-08-01T20:07:03.688Z,22.30
2022-08-01T20:12:07.002Z,22.20
2022-08-01T20:17:09.622Z,22.20
2022-08-01T20:22:12.394Z,22.20
2022-08-01T20:27:15.829Z,22.10
2022-08-01T20:32:20.174Z,22.00
2022-08-01T20:38:03.332Z,22.00
2022-08-01T20:42:45.825Z,21.90
2022-08-01T20:47:50.717Z,21.90
2022-08-01T20:52:53.264Z,21.90
2022-08-01T20:57:56.528Z,21.70
2022-08-01T21:03:15.750Z,21.70
2022-08-01T21:08:23.253Z,21.70
2022-08-01T21:13:38.150Z,21.60
2022-08-01T21:19:16.869Z,21.70
2022-08-01T21:24:19.312Z,21.60
2022-08-01T21:29:24.278Z,21.60
2022-08-01T21:34:26.813Z,21.60
2022-08-01T21:39:29.474Z,21.60
2022-08-01T21:44:34.090Z,21.60
2022-08-01T21:49:36.643Z,21.70
2022-08-01T21:55:00.710Z,21.60
2022-08-01T22:00:21.065Z,21.60
2022-08-01T22:05:49.637Z,21.50
2022-08-01T22:10:58.989Z,21.50
2022-08-01T22:16:04.034Z,21.50
2022-08-01T22:21:07.926Z,21.60
2022-08-01T22:26:12.673Z,21.40
2022-08-01T22:31:16.782Z,21.40
2022-08-01T22:36:20.656Z,21.50
2022-08-01T22:41:29.427Z,21.50
2022-08-01T22:46:52.752Z,21.40
2022-08-01T22:52:11.579Z,21.40
2022-08-01T22:57:29.699Z,21.40
2022-08-01T23:02:37.218Z,21.40
2022-08-01T23:07:47.611Z,21.30
2022-08-01T23:12:54.594Z,21.30
2022-08-01T23:17:58.253Z,21.30
2022-08-01T23:23:02.373Z,21.30
2022-08-01T23:28:06.417Z,21.30
2022-08-01T23:33:09.113Z,21.20
2022-08-01T23:38:11.683Z,21.20
2022-08-01T23:43:17.170Z,21.20
2022-08-01T23:48:20.507Z,21.20
2022-08-01T23:53:23.120Z,21.20
2022-08-01T23:58:25.710Z,21.10
